sensor_id;sensor_type;location;lat;lon;timestamp;temperature;humidity
18930;DHT22;43305;52.186;5.598;2023-03-01T00:01:13;-1.30;99.90
18930;DHT22;43305;52.186;5.598;2023-03-01T00:03:41;-1.40;99.90
18930;DHT22;43305;52.186;5.598;2023-03-01T00:06:08;-1.40;99.90
18930;DHT22;43305;52.186;5.598;2023-03-01T00:08:35;-1.40;99.90
18930;DHT22;43305;52.186;5.598;2023-03-01T00:11:04;-1.40;99.90
18930;DHT22;43305;52.186;5.598;2023-03-01T00:13:34;-1.40;99.90
18930;DHT22;43305;52.186;5.598;2023-03-01T00:16:02;-1.40;99.90
18930;DHT22;43305;52.186;5.598;2023-03-01T00:18:31;-1.40;99.90
18930;DHT22;43305;52.186;5.598;2023-03-01T00:20:58;-1.40;99.90
18930;DHT22;43305;52.186;5.598;2023-03-01T00:23:26;-1.40;99.90
18930;DHT22;43305;52.186;5.598;2023-03-01T00:25:53;-1.40;99.90
18930;DHT22;43305;52.186;5.598;2023-03-01T00:28:21;-1.50;99.90
18930;DHT22;43305;52.186;5.598;2023-03-01T00:30:48;-1.60;99.90
18930;DHT22;43305;52.186;5.598;2023-03-01T00:33:17;-1.60;99.90
18930;DHT22;43305;52.186;5.598;2023-03-01T00:35:46;-1.60;99.90
18930;DHT22;43305;52.186;5.598;2023-03-01T00:38:13;-1.60;99.90
18930;DHT22;43305;52.186;5.598;2023-03-01T00:40:39;-1.60;99.90
18930;DHT22;43305;52.186;5.598;2023-03-01T00:43:09;-1.70;99.90
18930;DHT22;43305;52.186;5.598;2023-03-01T00:45:36;-1.70;99.90
18930;DHT22;43305;52.186;5.598;2023-03-01T00:48:04;-1.60;99.90
18930;DHT22;43305;52.186;5.598;2023-03-01T00:50:32;-1.70;99.90
18930;DHT22;43305;52.186;5.598;2023-03-01T00:53:00;-1.70;99.90
18930;DHT22;43305;52.186;5.598;2023-03-01T00:55:27;-1.70;99.90
18930;DHT22;43305;52.186;5.598;2023-03-01T00:57:54;-1.70;99.90
18930;DHT22;43305;52.186;5.598;2023-03-01T01:00:21;-1.80;99.90
18930;DHT22;43305;52.186;5.598;2023-03-01T01:02:51;-1.70;99.90
18930;DHT22;43305;52.186;5.598;2023-03-01T01:05:21;-1.70;99.90
18930;DHT22;43305;52.186;5.598;2023-03-01T01:07:48;-1.70;99.90
18930;DHT22;43305;52.186;5.598;2023-03-01T01:10:22;-1.70;99.90
18930;DHT22;43305;52.186;5.598;2023-03-01T01:12:49;-1.70;99.90
18930;DHT22;43305;52.186;5.598;2023-03-01T01:15:16;-1.80;99.90
18930;DHT22;43305;52.186;5.598;2023-03-01T01:17:43;-1.80;99.90
18930;DHT22;43305;52.186;5.598;2023-03-01T01:20:11;-1.80;99.90
18930;DHT22;43305;52.186;5.598;2023-03-01T01:22:38;-1.80;99.90
18930;DHT22;43305;52.186;5.598;2023-03-01T01:25:07;-1.90;99.90
18930;DHT22;43305;52.186;5.598;2023-03-01T01:27:36;-1.90;99.90
18930;DHT22;43305;52.186;5.598;2023-03-01T01:30:04;-1.90;99.90
18930;DHT22;43305;52.186;5.598;2023-03-01T01:32:31;-1.90;99.90
18930;DHT22;43305;52.186;5.598;2023-03-01T01:34:58;-1.90;99.90
18930;DHT22;43305;52.186;5.598;2023-03-01T01:37:25;-1.90;99.90
18930;DHT22;43305;52.186;5.598;2023-03-01T01:39:57;-1.90;99.90
18930;DHT22;43305;52.186;5.598;2023-03-01T01:42:23;-2.00;99.90
18930;DHT22;43305;52.186;5.598;2023-03-01T01:45:29;-1.90;99.90
18930;DHT22;43305;52.186;5.598;2023-03-01T01:48:00;-2.00;99.90
18930;DHT22;43305;52.186;5.598;2023-03-01T01:50:30;-2.00;99.90
18930;DHT22;43305;52.186;5.598;2023-03-01T01:53:05;-2.00;99.90
18930;DHT22;43305;52.186;5.598;2023-03-01T01:55:34;-2.10;99.90
18930;DHT22;43305;52.186;5.598;2023-03-01T01:58:04;-2.10;99.90
18930;DHT22;43305;52.186;5.598;2023-03-01T02:00:33;-2.10;99.90
18930;DHT22;43305;52.186;5.598;2023-03-01T02:03:05;-2.10;99.90
18930;DHT22;43305;52.186;5.598;2023-03-01T02:05:36;-2.10;99.90
18930;DHT22;43305;52.186;5.598;2023-03-01T02:08:05;-2.10;99.90
18930;DHT22;43305;52.186;5.598;2023-03-01T02:10:33;-2.10;99.90
18930;DHT22;43305;52.186;5.598;2023-03-01T02:13:02;-2.10;99.90
18930;DHT22;43305;52.186;5.598;2023-03-01T02:15:33;-2.10;99.90
18930;DHT22;43305;52.186;5.598;2023-03-01T02:18:01;-2.10;99.90
18930;DHT22;43305;52.186;5.598;2023-03-01T02:20:34;-2.10;99.90
18930;DHT22;43305;52.186;5.598;2023-03-01T02:23:02;-2.20;99.90
18930;DHT22;43305;52.186;5.598;2023-03-01T02:25:38;-2.20;99.90
18930;DHT22;43305;52.186;5.598;2023-03-01T02:28:17;-2.20;99.90
18930;DHT22;43305;52.186;5.598;2023-03-01T02:30:49;-2.20;99.90
18930;DHT22;43305;52.186;5.598;2023-03-01T02:33:36;-2.20;99.90
18930;DHT22;43305;52.186;5.598;2023-03-01T02:36:07;-2.20;99.90
18930;DHT22;43305;52.186;5.598;2023-03-01T02:38:35;-2.30;99.90
18930;DHT22;43305;52.186;5.598;2023-03-01T02:41:02;-2.30;99.90
18930;DHT22;43305;52.186;5.598;2023-03-01T02:43:33;-2.30;99.90
18930;DHT22;43305;52.186;5.598;2023-03-01T02:46:05;-2.30;99.90
18930;DHT22;43305;52.186;5.598;2023-03-01T02:48:40;-2.40;99.90
18930;DHT22;43305;52.186;5.598;2023-03-01T02:51:13;-2.40;99.90
18930;DHT22;43305;52.186;5.598;2023-03-01T02:53:52;-2.40;99.90
18930;DHT22;43305;52.186;5.598;2023-03-01T02:56:21;-2.50;99.90
18930;DHT22;43305;52.186;5.598;2023-03-01T02:58:50;-2.40;99.90
18930;DHT22;43305;52.186;5.598;2023-03-01T03:01:21;-2.40;99.90
18930;DHT22;43305;52.186;5.598;2023-03-01T03:03:48;-2.40;99.90
18930;DHT22;43305;52.186;5.598;2023-03-01T03:06:15;-2.40;99.90
18930;DHT22;43305;52.186;5.598;2023-03-01T03:08:42;-2.40;99.90
18930;DHT22;43305;52.186;5.598;2023-03-01T03:11:09;-2.50;99.90
18930;DHT22;43305;52.186;5.598;2023-03-01T03:13:36;-2.40;99.90
18930;DHT22;43305;52.186;5.598;2023-03-01T03:16:08;-2.40;99.90
18930;DHT22;43305;52.186;5.598;2023-03-01T03:18:35;-2.40;99.90
18930;DHT22;43305;52.186;5.598;2023-03-01T03:21:02;-2.50;99.90
18930;DHT22;43305;52.186;5.598;2023-03-01T03:23:28;-2.40;99.90
18930;DHT22;43305;52.186;5.598;2023-03-01T03:25:55;-2.50;99.90
18930;DHT22;43305;52.186;5.598;2023-03-01T03:28:22;-2.50;99.90
18930;DHT22;43305;52.186;5.598;2023-03-01T03:30:49;-2.60;99.90
18930;DHT22;43305;52.186;5.598;2023-03-01T03:33:18;-2.50;99.90
18930;DHT22;43305;52.186;5.598;2023-03-01T03:35:46;-2.60;99.90
18930;DHT22;43305;52.186;5.598;2023-03-01T03:38:16;-2.60;99.90
18930;DHT22;43305;52.186;5.598;2023-03-01T03:40:46;-2.60;99.90
18930;DHT22;43305;52.186;5.598;2023-03-01T03:43:14;-2.50;99.90
18930;DHT22;43305;52.186;5.598;2023-03-01T03:45:43;-2.60;99.90
18930;DHT22;43305;52.186;5.598;2023-03-01T03:48:11;-2.60;99.90
18930;DHT22;43305;52.186;5.598;2023-03-01T03:50:41;-2.60;99.90
18930;DHT22;43305;52.186;5.598;2023-03-01T03:53:09;-2.60;99.90
18930;DHT22;43305;52.186;5.598;2023-03-01T03:55:36;-2.70;99.90
18930;DHT22;43305;52.186;5.598;2023-03-01T03:58:08;-2.70;99.90
18930;DHT22;43305;52.186;5.598;2023-03-01T04:00:36;-2.70;99.90
18930;DHT22;43305;52.186;5.598;2023-03-01T04:03:04;-2.70;99.90
18930;DHT22;43305;52.186;5.598;2023-03-01T04:05:31;-2.80;99.90
18930;DHT22;43305;52.186;5.598;2023-03-01T04:08:00;-2.80;99.90
18930;DHT22;43305;52.186;5.598;2023-03-01T04:10:34;-2.90;99.90
18930;DHT22;43305;52.186;5.598;2023-03-01T04:13:02;-2.80;99.90
18930;DHT22;43305;52.186;5.598;2023-03-01T04:15:30;-2.80;99.90
18930;DHT22;43305;52.186;5.598;2023-03-01T04:17:58;-2.80;99.90
18930;DHT22;43305;52.186;5.598;2023-03-01T04:20:27;-2.80;99.90
18930;DHT22;43305;52.186;5.598;2023-03-01T04:22:58;-2.80;99.90
18930;DHT22;43305;52.186;5.598;2023-03-01T04:25:27;-2.90;99.90
18930;DHT22;43305;52.186;5.598;2023-03-01T04:27:53;-3.00;99.90
18930;DHT22;43305;52.186;5.598;2023-03-01T04:30:20;-3.00;99.90
18930;DHT22;43305;52.186;5.598;2023-03-01T04:32:50;-3.00;99.90
18930;DHT22;43305;52.186;5.598;2023-03-01T04:35:18;-3.00;99.90
18930;DHT22;43305;52.186;5.598;2023-03-01T04:37:46;-3.00;99.90
18930;DHT22;43305;52.186;5.598;2023-03-01T04:40:13;-3.10;99.90
18930;DHT22;43305;52.186;5.598;2023-03-01T04:42:43;-3.10;99.90
18930;DHT22;43305;52.186;5.598;2023-03-01T04:45:10;-3.10;99.90
18930;DHT22;43305;52.186;5.598;2023-03-01T04:47:40;-3.10;99.90
18930;DHT22;43305;52.186;5.598;2023-03-01T04:50:09;-3.10;99.90
18930;DHT22;43305;52.186;5.598;2023-03-01T04:52:36;-3.10;99.90
18930;DHT22;43305;52.186;5.598;2023-03-01T04:55:05;-3.10;99.90
18930;DHT22;43305;52.186;5.598;2023-03-01T04:57:32;-3.10;99.90
18930;DHT22;43305;52.186;5.598;2023-03-01T05:00:01;-3.10;99.90
18930;DHT22;43305;52.186;5.598;2023-03-01T05:02:32;-3.10;99.90
18930;DHT22;43305;52.186;5.598;2023-03-01T05:04:59;-3.20;99.90
18930;DHT22;43305;52.186;5.598;2023-03-01T05:07:26;-3.20;99.90
18930;DHT22;43305;52.186;5.598;2023-03-01T05:09:52;-3.20;99.90
18930;DHT22;43305;52.186;5.598;2023-03-01T05:12:19;-3.20;99.90
18930;DHT22;43305;52.186;5.598;2023-03-01T05:14:46;-3.20;99.90
18930;DHT22;43305;52.186;5.598;2023-03-01T05:17:18;-3.30;99.90
18930;DHT22;43305;52.186;5.598;2023-03-01T05:19:50;-3.30;99.90
18930;DHT22;43305;52.186;5.598;2023-03-01T05:22:17;-3.40;99.90
18930;DHT22;43305;52.186;5.598;2023-03-01T05:24:45;-3.40;99.90
18930;DHT22;43305;52.186;5.598;2023-03-01T05:27:12;-3.40;99.90
18930;DHT22;43305;52.186;5.598;2023-03-01T05:29:39;-3.40;99.90
18930;DHT22;43305;52.186;5.598;2023-03-01T05:32:09;-3.50;99.90
18930;DHT22;43305;52.186;5.598;2023-03-01T05:34:42;-3.50;99.90
18930;DHT22;43305;52.186;5.598;2023-03-01T05:37:09;-3.50;99.90
18930;DHT22;43305;52.186;5.598;2023-03-01T05:39:36;-3.50;99.90
18930;DHT22;43305;52.186;5.598;2023-03-01T05:42:03;-3.60;99.90
18930;DHT22;43305;52.186;5.598;2023-03-01T05:44:30;-3.60;99.90
18930;DHT22;43305;52.186;5.598;2023-03-01T05:46:57;-3.60;99.90
18930;DHT22;43305;52.186;5.598;2023-03-01T05:49:24;-3.60;99.90
18930;DHT22;43305;52.186;5.598;2023-03-01T05:51:53;-3.70;99.90
18930;DHT22;43305;52.186;5.598;2023-03-01T05:54:20;-3.60;99.90
18930;DHT22;43305;52.186;5.598;2023-03-01T05:56:48;-3.70;99.90
18930;DHT22;43305;52.186;5.598;2023-03-01T05:59:15;-3.70;99.90
18930;DHT22;43305;52.186;5.598;2023-03-01T06:01:42;-3.70;99.90
18930;DHT22;43305;52.186;5.598;2023-03-01T06:04:09;-3.80;99.90
18930;DHT22;43305;52.186;5.598;2023-03-01T06:06:37;-3.80;99.90
18930;DHT22;43305;52.186;5.598;2023-03-01T06:09:05;-3.80;99.90
18930;DHT22;43305;52.186;5.598;2023-03-01T06:11:36;-3.80;99.90
18930;DHT22;43305;52.186;5.598;2023-03-01T06:14:03;-3.80;99.90
18930;DHT22;43305;52.186;5.598;2023-03-01T06:16:32;-3.80;99.90
18930;DHT22;43305;52.186;5.598;2023-03-01T06:18:58;-3.90;99.90
18930;DHT22;43305;52.186;5.598;2023-03-01T06:21:25;-3.80;99.90
18930;DHT22;43305;52.186;5.598;2023-03-01T06:23:52;-3.90;99.90
18930;DHT22;43305;52.186;5.598;2023-03-01T06:26:21;-3.90;99.90
18930;DHT22;43305;52.186;5.598;2023-03-01T06:28:50;-3.90;99.90
18930;DHT22;43305;52.186;5.598;2023-03-01T06:31:17;-3.90;99.90
18930;DHT22;43305;52.186;5.598;2023-03-01T06:33:44;-3.90;99.90
18930;DHT22;43305;52.186;5.598;2023-03-01T06:36:11;-3.90;99.90
18930;DHT22;43305;52.186;5.598;2023-03-01T06:38:38;-3.90;99.90
18930;DHT22;43305;52.186;5.598;2023-03-01T06:41:09;-3.90;99.90
18930;DHT22;43305;52.186;5.598;2023-03-01T06:43:37;-3.90;99.90
18930;DHT22;43305;52.186;5.598;2023-03-01T06:46:05;-3.90;99.90
18930;DHT22;43305;52.186;5.598;2023-03-01T06:48:33;-3.90;99.90
18930;DHT22;43305;52.186;5.598;2023-03-01T06:51:00;-3.90;99.90
18930;DHT22;43305;52.186;5.598;2023-03-01T06:53:27;-3.80;99.90
18930;DHT22;43305;52.186;5.598;2023-03-01T06:55:54;-3.90;99.90
18930;DHT22;43305;52.186;5.598;2023-03-01T06:58:21;-3.80;99.90
18930;DHT22;43305;52.186;5.598;2023-03-01T07:00:50;-3.80;99.90
18930;DHT22;43305;52.186;5.598;2023-03-01T07:03:17;-3.80;99.90
18930;DHT22;43305;52.186;5.598;2023-03-01T07:05:48;-3.80;99.90
18930;DHT22;43305;52.186;5.598;2023-03-01T07:08:17;-3.80;99.90
18930;DHT22;43305;52.186;5.598;2023-03-01T07:10:44;-3.80;99.90
18930;DHT22;43305;52.186;5.598;2023-03-01T07:13:11;-3.70;99.90
18930;DHT22;43305;52.186;5.598;2023-03-01T07:15:39;-3.70;99.90
18930;DHT22;43305;52.186;5.598;2023-03-01T07:18:11;-3.70;99.90
18930;DHT22;43305;52.186;5.598;2023-03-01T07:20:37;-3.70;99.90
18930;DHT22;43305;52.186;5.598;2023-03-01T07:23:05;-3.60;99.90
18930;DHT22;43305;52.186;5.598;2023-03-01T07:25:33;-3.60;99.90
18930;DHT22;43305;52.186;5.598;2023-03-01T07:28:00;-3.50;99.90
18930;DHT22;43305;52.186;5.598;2023-03-01T07:30:27;-3.50;99.90
18930;DHT22;43305;52.186;5.598;2023-03-01T07:32:54;-3.40;99.90
18930;DHT22;43305;52.186;5.598;2023-03-01T07:35:22;-3.40;99.90
18930;DHT22;43305;52.186;5.598;2023-03-01T07:37:49;-3.30;99.90
18930;DHT22;43305;52.186;5.598;2023-03-01T07:40:16;-3.20;99.90
18930;DHT22;43305;52.186;5.598;2023-03-01T07:42:46;-3.10;99.90
18930;DHT22;43305;52.186;5.598;2023-03-01T07:45:12;-3.00;99.90
18930;DHT22;43305;52.186;5.598;2023-03-01T07:47:40;-3.00;99.90
18930;DHT22;43305;52.186;5.598;2023-03-01T07:50:08;-2.90;99.90
18930;DHT22;43305;52.186;5.598;2023-03-01T07:52:36;-2.80;99.90
18930;DHT22;43305;52.186;5.598;2023-03-01T07:55:04;-2.60;99.90
18930;DHT22;43305;52.186;5.598;2023-03-01T07:57:31;-2.50;99.90
18930;DHT22;43305;52.186;5.598;2023-03-01T07:59:58;-2.30;99.90
18930;DHT22;43305;52.186;5.598;2023-03-01T08:02:24;-2.20;99.90
18930;DHT22;43305;52.186;5.598;2023-03-01T08:04:51;-2.00;99.90
18930;DHT22;43305;52.186;5.598;2023-03-01T08:07:21;-1.80;99.90
18930;DHT22;43305;52.186;5.598;2023-03-01T08:09:49;-1.60;99.90
18930;DHT22;43305;52.186;5.598;2023-03-01T08:12:16;-1.40;99.90
18930;DHT22;43305;52.186;5.598;2023-03-01T08:14:43;-1.20;99.90
18930;DHT22;43305;52.186;5.598;2023-03-01T08:17:18;-0.90;99.90
18930;DHT22;43305;52.186;5.598;2023-03-01T08:19:46;-0.70;99.90
18930;DHT22;43305;52.186;5.598;2023-03-01T08:22:13;-0.50;99.90
18930;DHT22;43305;52.186;5.598;2023-03-01T08:24:52;-0.20;99.90
18930;DHT22;43305;52.186;5.598;2023-03-01T08:27:21;0.00;99.90
18930;DHT22;43305;52.186;5.598;2023-03-01T08:29:48;0.30;99.90
18930;DHT22;43305;52.186;5.598;2023-03-01T08:32:15;0.50;99.90
18930;DHT22;43305;52.186;5.598;2023-03-01T08:34:42;0.70;99.90
18930;DHT22;43305;52.186;5.598;2023-03-01T08:37:09;1.00;99.90
18930;DHT22;43305;52.186;5.598;2023-03-01T08:39:36;1.20;99.90
18930;DHT22;43305;52.186;5.598;2023-03-01T08:42:10;1.50;99.90
18930;DHT22;43305;52.186;5.598;2023-03-01T08:44:37;1.70;99.90
18930;DHT22;43305;52.186;5.598;2023-03-01T08:47:04;1.90;99.90
18930;DHT22;43305;52.186;5.598;2023-03-01T08:49:31;2.20;99.90
18930;DHT22;43305;52.186;5.598;2023-03-01T08:51:58;2.40;99.90
18930;DHT22;43305;52.186;5.598;2023-03-01T08:54:26;2.60;99.90
18930;DHT22;43305;52.186;5.598;2023-03-01T08:56:53;2.90;99.90
18930;DHT22;43305;52.186;5.598;2023-03-01T08:59:22;3.20;99.90
18930;DHT22;43305;52.186;5.598;2023-03-01T09:01:49;3.40;99.90
18930;DHT22;43305;52.186;5.598;2023-03-01T09:04:16;3.60;99.90
18930;DHT22;43305;52.186;5.598;2023-03-01T09:06:43;3.80;99.90
18930;DHT22;43305;52.186;5.598;2023-03-01T09:09:13;4.00;99.90
18930;DHT22;43305;52.186;5.598;2023-03-01T09:11:41;4.20;99.90
18930;DHT22;43305;52.186;5.598;2023-03-01T09:14:09;4.40;99.90
18930;DHT22;43305;52.186;5.598;2023-03-01T09:16:37;4.50;99.90
18930;DHT22;43305;52.186;5.598;2023-03-01T09:19:05;4.70;99.90
18930;DHT22;43305;52.186;5.598;2023-03-01T09:21:34;4.90;99.90
18930;DHT22;43305;52.186;5.598;2023-03-01T09:24:01;5.00;99.90
18930;DHT22;43305;52.186;5.598;2023-03-01T09:26:28;5.10;99.90
18930;DHT22;43305;52.186;5.598;2023-03-01T09:28:55;5.10;99.90
18930;DHT22;43305;52.186;5.598;2023-03-01T09:31:24;5.30;99.90
18930;DHT22;43305;52.186;5.598;2023-03-01T09:33:53;5.40;99.90
18930;DHT22;43305;52.186;5.598;2023-03-01T09:36:22;5.60;99.90
18930;DHT22;43305;52.186;5.598;2023-03-01T09:38:50;5.80;99.90
18930;DHT22;43305;52.186;5.598;2023-03-01T09:41:47;5.90;99.90
18930;DHT22;43305;52.186;5.598;2023-03-01T09:44:29;6.00;99.90
18930;DHT22;43305;52.186;5.598;2023-03-01T09:46:58;6.20;99.90
18930;DHT22;43305;52.186;5.598;2023-03-01T09:49:29;6.30;99.90
18930;DHT22;43305;52.186;5.598;2023-03-01T09:52:00;6.40;99.90
18930;DHT22;43305;52.186;5.598;2023-03-01T09:54:30;6.50;99.90
18930;DHT22;43305;52.186;5.598;2023-03-01T09:57:13;6.50;99.90
18930;DHT22;43305;52.186;5.598;2023-03-01T09:59:55;6.40;99.90
18930;DHT22;43305;52.186;5.598;2023-03-01T10:02:33;6.50;99.90
18930;DHT22;43305;52.186;5.598;2023-03-01T10:05:15;6.80;99.90
18930;DHT22;43305;52.186;5.598;2023-03-01T10:07:52;7.00;99.90
18930;DHT22;43305;52.186;5.598;2023-03-01T10:10:27;7.20;99.90
18930;DHT22;43305;52.186;5.598;2023-03-01T10:12:55;7.20;99.90
18930;DHT22;43305;52.186;5.598;2023-03-01T10:15:32;7.20;99.90
18930;DHT22;43305;52.186;5.598;2023-03-01T10:18:03;7.20;99.90
18930;DHT22;43305;52.186;5.598;2023-03-01T10:20:44;7.20;99.90
18930;DHT22;43305;52.186;5.598;2023-03-01T10:23:15;7.40;99.90
18930;DHT22;43305;52.186;5.598;2023-03-01T10:26:14;7.50;99.90
18930;DHT22;43305;52.186;5.598;2023-03-01T10:28:53;7.80;99.90
18930;DHT22;43305;52.186;5.598;2023-03-01T10:31:25;7.80;99.90
18930;DHT22;43305;52.186;5.598;2023-03-01T10:33:53;7.80;99.90
18930;DHT22;43305;52.186;5.598;2023-03-01T10:36:23;8.10;99.90
18930;DHT22;43305;52.186;5.598;2023-03-01T10:38:52;8.10;99.90
18930;DHT22;43305;52.186;5.598;2023-03-01T10:41:21;8.10;99.90
18930;DHT22;43305;52.186;5.598;2023-03-01T10:43:51;8.00;99.90
18930;DHT22;43305;52.186;5.598;2023-03-01T10:46:24;8.10;99.90
18930;DHT22;43305;52.186;5.598;2023-03-01T10:49:16;8.30;99.90
18930;DHT22;43305;52.186;5.598;2023-03-01T10:51:46;8.50;99.90
18930;DHT22;43305;52.186;5.598;2023-03-01T10:54:19;8.60;99.90
18930;DHT22;43305;52.186;5.598;2023-03-01T10:56:47;8.70;99.90
18930;DHT22;43305;52.186;5.598;2023-03-01T10:59:27;8.80;99.90
18930;DHT22;43305;52.186;5.598;2023-03-01T11:02:15;8.90;99.90
18930;DHT22;43305;52.186;5.598;2023-03-01T11:04:56;9.10;99.90
18930;DHT22;43305;52.186;5.598;2023-03-01T11:07:25;9.40;99.90
18930;DHT22;43305;52.186;5.598;2023-03-01T11:09:52;9.50;99.90
18930;DHT22;43305;52.186;5.598;2023-03-01T11:12:20;9.60;99.90
18930;DHT22;43305;52.186;5.598;2023-03-01T11:14:53;9.60;99.90
18930;DHT22;43305;52.186;5.598;2023-03-01T11:17:23;9.70;99.90
18930;DHT22;43305;52.186;5.598;2023-03-01T11:20:02;9.60;99.90
18930;DHT22;43305;52.186;5.598;2023-03-01T11:22:34;9.50;99.90
18930;DHT22;43305;52.186;5.598;2023-03-01T11:25:02;9.50;99.90
18930;DHT22;43305;52.186;5.598;2023-03-01T11:27:32;9.50;99.90
18930;DHT22;43305;52.186;5.598;2023-03-01T11:30:03;9.80;99.90
18930;DHT22;43305;52.186;5.598;2023-03-01T11:32:38;9.80;99.90
18930;DHT22;43305;52.186;5.598;2023-03-01T11:35:14;10.20;99.90
18930;DHT22;43305;52.186;5.598;2023-03-01T11:37:59;10.50;99.90
18930;DHT22;43305;52.186;5.598;2023-03-01T11:40:32;10.30;99.90
18930;DHT22;43305;52.186;5.598;2023-03-01T11:43:06;10.20;99.90
18930;DHT22;43305;52.186;5.598;2023-03-01T11:45:46;10.50;99.90
18930;DHT22;43305;52.186;5.598;2023-03-01T11:48:32;10.70;99.90
18930;DHT22;43305;52.186;5.598;2023-03-01T11:51:09;11.00;99.90
18930;DHT22;43305;52.186;5.598;2023-03-01T11:53:56;11.00;99.90
18930;DHT22;43305;52.186;5.598;2023-03-01T11:56:31;10.90;99.90
18930;DHT22;43305;52.186;5.598;2023-03-01T11:59:13;10.90;99.90
18930;DHT22;43305;52.186;5.598;2023-03-01T12:01:58;11.00;99.90
18930;DHT22;43305;52.186;5.598;2023-03-01T12:07:26;11.30;99.90
18930;DHT22;43305;52.186;5.598;2023-03-01T12:10:15;11.90;99.90
18930;DHT22;43305;52.186;5.598;2023-03-01T12:13:10;11.90;99.90
18930;DHT22;43305;52.186;5.598;2023-03-01T12:15:45;11.90;99.90
18930;DHT22;43305;52.186;5.598;2023-03-01T12:18:41;11.70;99.90
18930;DHT22;43305;52.186;5.598;2023-03-01T12:21:21;11.70;99.90
18930;DHT22;43305;52.186;5.598;2023-03-01T12:24:19;11.80;99.90
18930;DHT22;43305;52.186;5.598;2023-03-01T12:27:02;12.00;99.90
18930;DHT22;43305;52.186;5.598;2023-03-01T12:29:38;12.10;99.90
18930;DHT22;43305;52.186;5.598;2023-03-01T12:32:20;12.20;99.90
18930;DHT22;43305;52.186;5.598;2023-03-01T12:35:00;12.40;99.90
18930;DHT22;43305;52.186;5.598;2023-03-01T12:37:36;12.50;99.90
18930;DHT22;43305;52.186;5.598;2023-03-01T12:40:33;12.60;99.90
18930;DHT22;43305;52.186;5.598;2023-03-01T12:43:13;12.50;99.90
18930;DHT22;43305;52.186;5.598;2023-03-01T12:45:54;12.40;99.90
18930;DHT22;43305;52.186;5.598;2023-03-01T12:48:39;12.10;99.90
18930;DHT22;43305;52.186;5.598;2023-03-01T12:51:10;12.30;99.90
18930;DHT22;43305;52.186;5.598;2023-03-01T12:53:40;12.00;99.90
18930;DHT22;43305;52.186;5.598;2023-03-01T12:56:10;11.90;99.90
18930;DHT22;43305;52.186;5.598;2023-03-01T12:58:45;12.10;99.90
18930;DHT22;43305;52.186;5.598;2023-03-01T13:01:41;12.00;99.90
18930;DHT22;43305;52.186;5.598;2023-03-01T13:04:30;12.20;99.90
18930;DHT22;43305;52.186;5.598;2023-03-01T13:07:15;12.20;99.90
18930;DHT22;43305;52.186;5.598;2023-03-01T13:09:50;12.10;99.90
18930;DHT22;43305;52.186;5.598;2023-03-01T13:15:32;12.10;99.90
18930;DHT22;43305;52.186;5.598;2023-03-01T13:18:01;12.20;99.90
18930;DHT22;43305;52.186;5.598;2023-03-01T13:20:33;12.50;99.90
18930;DHT22;43305;52.186;5.598;2023-03-01T13:23:07;12.50;99.90
18930;DHT22;43305;52.186;5.598;2023-03-01T13:25:35;12.40;99.90
18930;DHT22;43305;52.186;5.598;2023-03-01T13:28:53;12.50;99.90
18930;DHT22;43305;52.186;5.598;2023-03-01T13:34:48;12.50;99.90
18930;DHT22;43305;52.186;5.598;2023-03-01T13:37:26;12.40;99.90
18930;DHT22;43305;52.186;5.598;2023-03-01T13:39:55;12.90;99.90
18930;DHT22;43305;52.186;5.598;2023-03-01T13:42:48;12.90;99.90
18930;DHT22;43305;52.186;5.598;2023-03-01T13:45:22;13.20;99.90
18930;DHT22;43305;52.186;5.598;2023-03-01T13:47:55;13.00;99.90
18930;DHT22;43305;52.186;5.598;2023-03-01T13:50:25;12.90;99.90
18930;DHT22;43305;52.186;5.598;2023-03-01T13:52:56;12.90;99.90
18930;DHT22;43305;52.186;5.598;2023-03-01T13:55:30;12.90;99.90
18930;DHT22;43305;52.186;5.598;2023-03-01T13:58:01;12.80;99.90
18930;DHT22;43305;52.186;5.598;2023-03-01T14:00:35;12.80;99.90
18930;DHT22;43305;52.186;5.598;2023-03-01T14:03:09;12.60;99.90
18930;DHT22;43305;52.186;5.598;2023-03-01T14:05:39;12.70;99.90
18930;DHT22;43305;52.186;5.598;2023-03-01T14:08:20;12.40;99.90
18930;DHT22;43305;52.186;5.598;2023-03-01T14:10:57;12.50;99.90
18930;DHT22;43305;52.186;5.598;2023-03-01T14:13:37;12.30;99.90
18930;DHT22;43305;52.186;5.598;2023-03-01T14:16:21;12.50;99.90
18930;DHT22;43305;52.186;5.598;2023-03-01T14:18:57;12.60;99.90
18930;DHT22;43305;52.186;5.598;2023-03-01T14:21:29;12.50;99.90
18930;DHT22;43305;52.186;5.598;2023-03-01T14:23:57;12.40;99.90
18930;DHT22;43305;52.186;5.598;2023-03-01T14:26:25;12.30;99.90
18930;DHT22;43305;52.186;5.598;2023-03-01T14:28:52;12.30;99.90
18930;DHT22;43305;52.186;5.598;2023-03-01T14:31:39;12.10;99.90
18930;DHT22;43305;52.186;5.598;2023-03-01T14:34:19;11.60;99.90
18930;DHT22;43305;52.186;5.598;2023-03-01T14:36:48;11.30;99.90
18930;DHT22;43305;52.186;5.598;2023-03-01T14:39:22;11.20;99.90
18930;DHT22;43305;52.186;5.598;2023-03-01T14:41:51;11.10;99.90
18930;DHT22;43305;52.186;5.598;2023-03-01T14:44:22;11.00;99.90
18930;DHT22;43305;52.186;5.598;2023-03-01T14:46:52;10.90;99.90
18930;DHT22;43305;52.186;5.598;2023-03-01T14:49:22;10.80;99.90
18930;DHT22;43305;52.186;5.598;2023-03-01T14:51:54;10.80;99.90
18930;DHT22;43305;52.186;5.598;2023-03-01T14:54:24;11.10;99.90
18930;DHT22;43305;52.186;5.598;2023-03-01T14:56:53;11.30;99.90
18930;DHT22;43305;52.186;5.598;2023-03-01T14:59:22;11.50;99.90
18930;DHT22;43305;52.186;5.598;2023-03-01T15:01:51;11.90;99.90
18930;DHT22;43305;52.186;5.598;2023-03-01T15:04:18;12.40;99.90
18930;DHT22;43305;52.186;5.598;2023-03-01T15:06:51;12.50;99.90
18930;DHT22;43305;52.186;5.598;2023-03-01T15:09:22;12.40;99.90
18930;DHT22;43305;52.186;5.598;2023-03-01T15:11:49;12.40;99.90
18930;DHT22;43305;52.186;5.598;2023-03-01T15:14:36;12.70;99.90
18930;DHT22;43305;52.186;5.598;2023-03-01T15:17:05;13.30;99.90
18930;DHT22;43305;52.186;5.598;2023-03-01T15:19:40;13.00;99.90
18930;DHT22;43305;52.186;5.598;2023-03-01T15:22:15;12.90;99.90
18930;DHT22;43305;52.186;5.598;2023-03-01T15:24:46;13.10;99.90
18930;DHT22;43305;52.186;5.598;2023-03-01T15:27:18;13.10;99.90
18930;DHT22;43305;52.186;5.598;2023-03-01T15:29:50;13.00;99.90
18930;DHT22;43305;52.186;5.598;2023-03-01T15:32:27;12.80;99.90
18930;DHT22;43305;52.186;5.598;2023-03-01T15:34:54;12.50;99.90
18930;DHT22;43305;52.186;5.598;2023-03-01T15:37:43;12.00;99.90
18930;DHT22;43305;52.186;5.598;2023-03-01T15:40:21;11.30;99.90
18930;DHT22;43305;52.186;5.598;2023-03-01T15:42:56;10.60;99.90
18930;DHT22;43305;52.186;5.598;2023-03-01T15:45:25;10.20;99.90
18930;DHT22;43305;52.186;5.598;2023-03-01T15:47:54;9.70;99.90
18930;DHT22;43305;52.186;5.598;2023-03-01T15:50:25;9.50;99.90
18930;DHT22;43305;52.186;5.598;2023-03-01T15:52:55;9.40;99.90
18930;DHT22;43305;52.186;5.598;2023-03-01T15:55:24;9.20;99.90
18930;DHT22;43305;52.186;5.598;2023-03-01T15:57:58;9.10;99.90
18930;DHT22;43305;52.186;5.598;2023-03-01T16:00:27;9.10;99.90
18930;DHT22;43305;52.186;5.598;2023-03-01T16:02:54;9.00;99.90
18930;DHT22;43305;52.186;5.598;2023-03-01T16:05:23;9.00;99.90
18930;DHT22;43305;52.186;5.598;2023-03-01T16:07:50;8.80;99.90
18930;DHT22;43305;52.186;5.598;2023-03-01T16:10:20;8.80;99.90